Time;durP1;ratioP1;P1;durP2;ratioP2;P2;SDS_P1;SDS_P2;PMS_P1;PMS_P2;Temp;Humidity;BMP_temperature;BMP_pressure;BME280_temperature;BME280_humidity;BME280_pressure;Samples;Min_cycle;Max_cycle;Signal;HPM_P1;HPM_P2
2024/04/22 00:01:13;;;;;;;;;;;;;;;;;;5481765;26;19940;-68
2024/04/22 00:03:39;;;;;;;;;;;;;;;;;;5481152;26;19934;-69
2024/04/22 00:06:08;;;;;;;;;;;;;;;;;;5467745;26;19928;-69
2024/04/22 00:08:34;;;;;;;;;;;;;;;;;;5481981;26;19958;-69
2024/04/22 00:11:03;;;;;;;;;;;;;;;;;;5482248;26;19935;-71
2024/04/22 00:13:29;;;;;;;;;;;;;;;;;;5473016;26;20267;-69
2024/04/22 00:15:58;;;;;;;;;;;;;;;;;;5463519;26;19928;-69
2024/04/22 00:18:24;;;;;;;;;;;;;;;;;;5474202;26;19928;-68
2024/04/22 00:20:52;;;;;;;;;;;;;;;;;;5477684;26;19935;-69
2024/04/22 00:23:19;;;;;;;;;;;;;;;;;;5481211;26;19927;-69
2024/04/22 00:25:47;;;;;;;;;;;;;;;;;;5482414;26;19928;-69
2024/04/22 00:28:13;;;;;;;;;;;;;;;;;;5482224;26;19928;-70
2024/04/22 00:30:42;;;;;;;;;;;;;;;;;;5482085;26;19995;-72
2024/04/22 00:33:08;;;;;;;;;;;;;;;;;;5474991;26;19936;-73
2024/04/22 00:35:37;;;;;;;;;;;;;;;;;;5483758;26;19951;-73
2024/04/22 00:38:03;;;;;;;;;;;;;;;;;;5483430;26;19928;-73
2024/04/22 00:40:31;;;;;;;;;;;;;;;;;;5480717;26;20450;-73
2024/04/22 00:42:58;;;;;;;;;;;;;;;;;;5479708;26;19928;-72
2024/04/22 00:45:26;;;;;;;;;;;;;;;;;;5478799;26;19936;-74
2024/04/22 00:47:52;;;;;;;;;;;;;;;;;;5481277;26;19928;-72
2024/04/22 00:50:21;;;;;;;;;;;;;;;;;;5481092;26;19936;-72
2024/04/22 00:52:47;;;;;;;;;;;;;;;;;;5480456;26;19936;-71
2024/04/22 00:55:16;;;;;;;;;;;;;;;;;;5482400;26;19940;-71
2024/04/22 00:57:42;;;;;;;;;;;;;;;;;;5482501;26;19932;-71
2024/04/22 01:00:11;;;;;;;;;;;;;;;;;;5482662;26;20002;-71
2024/04/22 01:02:37;;;;;;;;;;;;;;;;;;5483284;26;19940;-70
2024/04/22 01:05:06;;;;;;;;;;;;;;;;;;5478279;26;20505;-71
2024/04/22 01:07:32;;;;;;;;;;;;;;;;;;5477390;26;20374;-71
2024/04/22 01:10:01;;;;;;;;;;;;;;;;;;5475446;26;20027;-72
2024/04/22 01:12:27;;;;;;;;;;;;;;;;;;5481799;26;19932;-71
2024/04/22 01:14:55;;;;;;;;;;;;;;;;;;5481577;26;19928;-72
2024/04/22 01:17:21;;;;;;;;;;;;;;;;;;5474910;26;19928;-71
2024/04/22 01:19:50;;;;;;;;;;;;;;;;;;5463305;26;19929;-71
2024/04/22 01:22:16;;;;;;;;;;;;;;;;;;5472025;26;19938;-71
2024/04/22 01:24:45;;;;;;;;;;;;;;;;;;5483103;26;19934;-73
2024/04/22 01:27:11;;;;;;;;;;;;;;;;;;5483114;26;20264;-71
2024/04/22 01:29:39;;;;;;;;;;;;;;;;;;5482192;26;19932;-70
2024/04/22 01:32:05;;;;;;;;;;;;;;;;;;5479297;26;20263;-74
2024/04/22 01:34:34;;;;;;;;;;;;;;;;;;5482315;26;19995;-72
2024/04/22 01:37:00;;;;;;;;;;;;;;;;;;5481626;26;19928;-72
2024/04/22 01:39:29;;;;;;;;;;;;;;;;;;5475512;26;19948;-71
2024/04/22 01:41:55;;;;;;;;;;;;;;;;;;5481130;26;19932;-73
2024/04/22 01:44:24;;;;;;;;;;;;;;;;;;5480742;26;20003;-73
2024/04/22 01:46:50;;;;;;;;;;;;;;;;;;5483979;26;19928;-72
2024/04/22 01:49:20;;;;;;;;;;;;;;;;;;5482562;26;19928;-73
2024/04/22 01:51:47;;;;;;;;;;;;;;;;;;5482801;26;19936;-73
2024/04/22 01:54:15;;;;;;;;;;;;;;;;;;5483533;26;20288;-73
2024/04/22 01:56:41;;;;;;;;;;;;;;;;;;5481279;26;20363;-73
2024/04/22 01:59:10;;;;;;;;;;;;;;;;;;5481073;26;20046;-72
2024/04/22 02:01:36;;;;;;;;;;;;;;;;;;5481105;26;20359;-72
2024/04/22 02:04:05;;;;;;;;;;;;;;;;;;5481462;26;19928;-71
2024/04/22 02:06:31;;;;;;;;;;;;;;;;;;5478050;26;19928;-71
2024/04/22 02:09:00;;;;;;;;;;;;;;;;;;5481607;26;20141;-71
2024/04/22 02:11:26;;;;;;;;;;;;;;;;;;5481691;26;19927;-71
2024/04/22 02:13:54;;;;;;;;;;;;;;;;;;5466341;26;19940;-72
2024/04/22 02:16:20;;;;;;;;;;;;;;;;;;5479343;26;20005;-72
2024/04/22 02:18:49;;;;;;;;;;;;;;;;;;5482329;26;19935;-71
2024/04/22 02:21:15;;;;;;;;;;;;;;;;;;5482400;26;19928;-72
2024/04/22 02:23:44;;;;;;;;;;;;;;;;;;5478025;26;19995;-71
2024/04/22 02:26:10;;;;;;;;;;;;;;;;;;5471666;26;19928;-72
2024/04/22 02:28:38;;;;;;;;;;;;;;;;;;5475452;26;20267;-72
2024/04/22 02:31:05;;;;;;;;;;;;;;;;;;5473797;26;20377;-72
2024/04/22 02:33:34;;;;;;;;;;;;;;;;;;5481648;26;19996;-72
2024/04/22 02:36:00;;;;;;;;;;;;;;;;;;5481664;26;19939;-72
2024/04/22 02:38:28;;;;;;;;;;;;;;;;;;5481235;26;19992;-72
2024/04/22 02:40:54;;;;;;;;;;;;;;;;;;5480288;26;19928;-72
2024/04/22 02:43:23;;;;;;;;;;;;;;;;;;5481202;26;20662;-71
2024/04/22 02:45:49;;;;;;;;;;;;;;;;;;5482553;26;19928;-71
2024/04/22 02:48:18;;;;;;;;;;;;;;;;;;5467237;26;20347;-72
2024/04/22 02:50:44;;;;;;;;;;;;;;;;;;5481291;26;19939;-72
2024/04/22 02:53:12;;;;;;;;;;;;;;;;;;5483832;26;19936;-72
2024/04/22 02:55:39;;;;;;;;;;;;;;;;;;5477937;26;20363;-72
2024/04/22 02:58:07;;;;;;;;;;;;;;;;;;5483347;26;19954;-72
2024/04/22 03:00:33;;;;;;;;;;;;;;;;;;5484505;26;20836;-72
2024/04/22 03:03:02;;;;;;;;;;;;;;;;;;5484136;26;19940;-71
2024/04/22 03:05:28;;;;;;;;;;;;;;;;;;5482574;26;19943;-72
2024/04/22 03:07:57;;;;;;;;;;;;;;;;;;5485998;26;20435;-72
2024/04/22 03:10:23;;;;;;;;;;;;;;;;;;5483637;26;19928;-72
2024/04/22 03:12:51;;;;;;;;;;;;;;;;;;5484603;26;20000;-71
2024/04/22 03:15:17;;;;;;;;;;;;;;;;;;5486310;26;19935;-72
2024/04/22 03:17:46;;;;;;;;;;;;;;;;;;5458957;26;20317;-71
2024/04/22 03:20:12;;;;;;;;;;;;;;;;;;5465644;26;19944;-72
2024/04/22 03:22:41;;;;;;;;;;;;;;;;;;5451020;26;19929;-71
2024/04/22 03:25:07;;;;;;;;;;;;;;;;;;5475073;26;19928;-71
2024/04/22 03:27:36;;;;;;;;;;;;;;;;;;5471274;26;20170;-71
2024/04/22 03:30:02;;;;;;;;;;;;;;;;;;5484867;26;19928;-72
2024/04/22 03:32:31;;;;;;;;;;;;;;;;;;5484659;26;19943;-71
2024/04/22 03:34:57;;;;;;;;;;;;;;;;;;5482762;26;19928;-71
2024/04/22 03:37:26;;;;;;;;;;;;;;;;;;5484672;26;19928;-71
2024/04/22 03:39:54;;;;;;;;;;;;;;;;;;5471617;26;19935;-71
2024/04/22 03:42:23;;;;;;;;;;;;;;;;;;5482121;26;19928;-70
2024/04/22 03:44:49;;;;;;;;;;;;;;;;;;5484242;26;19934;-72
2024/04/22 03:50:02;;;;;;;;;;;;;;;;;;5485058;26;19935;-71
2024/04/22 03:52:32;;;;;;;;;;;;;;;;;;5481173;26;20332;-72
2024/04/22 03:55:00;;;;;;;;;;;;;;;;;;5469408;26;19928;-72
2024/04/22 03:57:29;;;;;;;;;;;;;;;;;;5469372;26;19928;-71
2024/04/22 03:59:55;;;;;;;;;;;;;;;;;;5482450;26;19935;-73
2024/04/22 04:02:24;;;;;;;;;;;;;;;;;;5482200;26;19928;-72
2024/04/22 04:04:50;;;;;;;;;;;;;;;;;;5483671;26;19935;-72
2024/04/22 04:07:19;;;;;;;;;;;;;;;;;;5483260;26;19939;-69
2024/04/22 04:09:45;;;;;;;;;;;;;;;;;;5484206;26;20375;-70
2024/04/22 04:12:13;;;;;;;;;;;;;;;;;;5479505;26;19936;-70
2024/04/22 04:14:39;;;;;;;;;;;;;;;;;;5483959;26;19939;-70
2024/04/22 04:17:08;;;;;;;;;;;;;;;;;;5484787;26;19959;-70
2024/04/22 04:19:34;;;;;;;;;;;;;;;;;;5479406;26;19928;-70
2024/04/22 04:22:03;;;;;;;;;;;;;;;;;;5472445;26;20010;-69
2024/04/22 04:24:29;;;;;;;;;;;;;;;;;;5484269;26;19935;-69
2024/04/22 04:26:58;;;;;;;;;;;;;;;;;;5483121;26;20017;-69
2024/04/22 04:29:24;;;;;;;;;;;;;;;;;;5482057;26;19943;-68
2024/04/22 04:31:52;;;;;;;;;;;;;;;;;;5482902;26;20374;-69
2024/04/22 04:34:19;;;;;;;;;;;;;;;;;;5482454;26;19939;-69
2024/04/22 04:36:47;;;;;;;;;;;;;;;;;;5482021;26;19928;-68
2024/04/22 04:39:13;;;;;;;;;;;;;;;;;;5480905;26;19928;-68
2024/04/22 04:41:42;;;;;;;;;;;;;;;;;;5481494;26;20120;-68
2024/04/22 04:44:08;;;;;;;;;;;;;;;;;;5481548;26;19936;-68
2024/04/22 04:46:37;;;;;;;;;;;;;;;;;;5475892;26;19936;-68
2024/04/22 04:49:03;;;;;;;;;;;;;;;;;;5481218;26;19943;-68
2024/04/22 04:51:32;;;;;;;;;;;;;;;;;;5482237;26;20016;-68
2024/04/22 04:53:58;;;;;;;;;;;;;;;;;;5474942;26;19928;-69
2024/04/22 04:56:26;;;;;;;;;;;;;;;;;;5479429;26;20408;-68
2024/04/22 04:58:53;;;;;;;;;;;;;;;;;;5481147;26;19939;-68
2024/04/22 05:01:21;;;;;;;;;;;;;;;;;;5478470;26;19947;-69
2024/04/22 05:03:47;;;;;;;;;;;;;;;;;;5469138;26;19929;-68
2024/04/22 05:06:16;;;;;;;;;;;;;;;;;;5466176;26;20439;-70
2024/04/22 05:08:42;;;;;;;;;;;;;;;;;;5483433;26;20888;-68
2024/04/22 05:11:11;;;;;;;;;;;;;;;;;;5480670;26;19932;-69
2024/04/22 05:13:37;;;;;;;;;;;;;;;;;;5484071;26;20381;-69
2024/04/22 05:16:05;;;;;;;;;;;;;;;;;;5469596;26;20004;-69
2024/04/22 05:18:31;;;;;;;;;;;;;;;;;;5482804;26;19927;-69
2024/04/22 05:21:00;;;;;;;;;;;;;;;;;;5469845;26;19977;-70
2024/04/22 05:23:26;;;;;;;;;;;;;;;;;;5482312;26;19928;-69
2024/04/22 05:25:55;;;;;;;;;;;;;;;;;;5475819;26;19928;-69
2024/04/22 05:28:23;;;;;;;;;;;;;;;;;;5477140;26;19940;-70
2024/04/22 05:30:51;;;;;;;;;;;;;;;;;;5466165;26;19939;-70
2024/04/22 05:36:14;;;;;;;;;;;;;;;;;;5480264;26;19972;-70
2024/04/22 05:38:43;;;;;;;;;;;;;;;;;;5456583;26;19943;-70
2024/04/22 05:41:09;;;;;;;;;;;;;;;;;;5453166;26;19932;-69
2024/04/22 05:43:38;;;;;;;;;;;;;;;;;;5479248;26;20694;-69
2024/04/22 05:46:07;;;;;;;;;;;;;;;;;;5460465;26;19928;-70
2024/04/22 05:48:36;;;;;;;;;;;;;;;;;;5478349;26;19935;-69
2024/04/22 05:51:05;;;;;;;;;;;;;;;;;;5481017;26;19928;-69
2024/04/22 05:53:34;;;;;;;;;;;;;;;;;;5474254;26;20708;-70
2024/04/22 05:56:02;;;;;;;;;;;;;;;;;;5476825;26;19927;-69
2024/04/22 05:58:28;;;;;;;;;;;;;;;;;;5463763;26;19940;-70
2024/04/22 06:00:58;;;;;;;;;;;;;;;;;;5469779;26;19935;-69
2024/04/22 06:03:24;;;;;;;;;;;;;;;;;;5475190;26;19940;-68
2024/04/22 06:05:52;;;;;;;;;;;;;;;;;;5475501;26;19996;-71
2024/04/22 06:08:19;;;;;;;;;;;;;;;;;;5479659;26;19939;-69
2024/04/22 06:10:47;;;;;;;;;;;;;;;;;;5471686;26;19927;-71
2024/04/22 06:13:13;;;;;;;;;;;;;;;;;;5454092;26;19947;-70
2024/04/22 06:15:42;;;;;;;;;;;;;;;;;;5465227;26;19939;-69
2024/04/22 06:18:08;;;;;;;;;;;;;;;;;;5473112;26;19931;-69
2024/04/22 06:20:37;;;;;;;;;;;;;;;;;;5468734;26;19928;-69
2024/04/22 06:23:03;;;;;;;;;;;;;;;;;;5479093;26;19928;-69
2024/04/22 06:25:32;;;;;;;;;;;;;;;;;;5472687;26;20415;-68
2024/04/22 06:27:58;;;;;;;;;;;;;;;;;;5471460;26;19927;-70
2024/04/22 06:30:26;;;;;;;;;;;;;;;;;;5478770;26;19940;-69
2024/04/22 06:32:52;;;;;;;;;;;;;;;;;;5468842;26;19928;-69
2024/04/22 06:35:22;;;;;;;;;;;;;;;;;;5472692;26;19996;-69
2024/04/22 06:37:48;;;;;;;;;;;;;;;;;;5465140;26;19935;-69
2024/04/22 06:40:16;;;;;;;;;;;;;;;;;;5468942;26;19934;-68
2024/04/22 06:42:43;;;;;;;;;;;;;;;;;;5473797;26;19928;-68
2024/04/22 06:45:11;;;;;;;;;;;;;;;;;;5478053;26;19955;-69
2024/04/22 06:47:37;;;;;;;;;;;;;;;;;;5478005;26;19928;-69
2024/04/22 06:50:06;;;;;;;;;;;;;;;;;;5480311;26;20371;-69
2024/04/22 06:52:32;;;;;;;;;;;;;;;;;;5479423;26;20235;-69
2024/04/22 06:55:01;;;;;;;;;;;;;;;;;;5469035;26;19936;-69
2024/04/22 06:57:27;;;;;;;;;;;;;;;;;;5470259;26;20016;-69
2024/04/22 06:59:56;;;;;;;;;;;;;;;;;;5479780;26;19935;-70
2024/04/22 07:02:22;;;;;;;;;;;;;;;;;;5473593;26;19947;-68
2024/04/22 07:04:50;;;;;;;;;;;;;;;;;;5480190;26;19932;-70
2024/04/22 07:07:16;;;;;;;;;;;;;;;;;;5479285;26;19935;-70
2024/04/22 07:09:45;;;;;;;;;;;;;;;;;;5479313;26;20800;-70
2024/04/22 07:12:11;;;;;;;;;;;;;;;;;;5477926;26;20681;-71
2024/04/22 07:14:40;;;;;;;;;;;;;;;;;;5480373;26;19928;-71
2024/04/22 07:17:06;;;;;;;;;;;;;;;;;;5479044;26;20244;-70
2024/04/22 07:19:35;;;;;;;;;;;;;;;;;;5475201;26;20011;-71
2024/04/22 07:22:01;;;;;;;;;;;;;;;;;;5480069;26;19928;-70
2024/04/22 07:24:30;;;;;;;;;;;;;;;;;;5478717;26;19941;-70
2024/04/22 07:26:56;;;;;;;;;;;;;;;;;;5475858;26;19991;-71
2024/04/22 07:29:25;;;;;;;;;;;;;;;;;;5480863;26;19936;-69
2024/04/22 07:31:51;;;;;;;;;;;;;;;;;;5481165;26;19967;-71
2024/04/22 07:34:19;;;;;;;;;;;;;;;;;;5479063;26;19956;-70
2024/04/22 07:36:45;;;;;;;;;;;;;;;;;;5467968;26;20758;-69
2024/04/22 07:39:14;;;;;;;;;;;;;;;;;;5473116;26;19944;-70
2024/04/22 07:41:40;;;;;;;;;;;;;;;;;;5466984;26;19928;-70
2024/04/22 07:44:09;;;;;;;;;;;;;;;;;;5481966;26;19939;-70
2024/04/22 07:46:35;;;;;;;;;;;;;;;;;;5480538;26;19935;-70
2024/04/22 07:49:04;;;;;;;;;;;;;;;;;;5482495;26;19935;-70
2024/04/22 07:54:08;;;;;;;;;;;;;;;;;;5336577;21;19942;-70
2024/04/22 07:56:35;;;;;;;;;;;;;;;;;;5312732;26;20012;-70
2024/04/22 07:59:04;;;;;;;;;;;;;;;;;;5303928;27;20001;-70
2024/04/22 08:01:30;;;;;;;;;;;;;;;;;;5303783;26;20241;-69
2024/04/22 08:03:58;;;;;;;;;;;;;;;;;;5291905;27;19931;-68
2024/04/22 08:06:24;;;;;;;;;;;;;;;;;;5306914;27;20257;-68
2024/04/22 08:08:53;;;;;;;;;;;;;;;;;;5306295;27;19934;-68
2024/04/22 08:11:19;;;;;;;;;;;;;;;;;;5305078;26;19931;-68
2024/04/22 08:13:48;;;;;;;;;;;;;;;;;;5303589;26;19945;-70
2024/04/22 08:16:14;;;;;;;;;;;;;;;;;;5306078;26;19937;-69
2024/04/22 08:18:42;;;;;;;;;;;;;;;;;;5306783;27;19996;-70
2024/04/22 08:21:11;;;;;;;;;;;;;;;;;;5283253;27;19931;-70
2024/04/22 08:23:40;;;;;;;;;;;;;;;;;;5305972;27;20394;-69
2024/04/22 08:26:06;;;;;;;;;;;;;;;;;;5299026;26;19931;-70
2024/04/22 08:28:35;;;;;;;;;;;;;;;;;;5301497;26;19958;-69
2024/04/22 08:31:01;;;;;;;;;;;;;;;;;;5305860;26;19937;-68
2024/04/22 08:33:29;;;;;;;;;;;;;;;;;;5306112;27;20008;-69
2024/04/22 08:35:56;;;;;;;;;;;;;;;;;;5305066;26;19931;-69
2024/04/22 08:38:25;;;;;;;;;;;;;;;;;;5298567;27;19938;-69
2024/04/22 08:40:51;;;;;;;;;;;;;;;;;;5306591;26;19970;-69
2024/04/22 08:43:20;;;;;;;;;;;;;;;;;;5305763;26;19938;-69
2024/04/22 08:45:47;;;;;;;;;;;;;;;;;;5304276;26;20369;-69
2024/04/22 08:48:15;;;;;;;;;;;;;;;;;;5317084;26;19933;-69
2024/04/22 08:50:41;;;;;;;;;;;;;;;;;;5304654;26;19931;-69
2024/04/22 08:53:10;;;;;;;;;;;;;;;;;;5314924;26;19930;-70
2024/04/22 08:55:36;;;;;;;;;;;;;;;;;;5303437;27;20419;-69
2024/04/22 08:58:05;;;;;;;;;;;;;;;;;;5299449;26;19931;-66
2024/04/22 09:00:31;;;;;;;;;;;;;;;;;;5318787;26;20030;-69
2024/04/22 09:03:00;;;;;;;;;;;;;;;;;;5311793;26;20427;-69
2024/04/22 09:05:26;;;;;;;;;;;;;;;;;;5302546;26;21352;-69
2024/04/22 09:07:55;;;;;;;;;;;;;;;;;;5302689;26;19930;-71
2024/04/22 09:10:22;;;;;;;;;;;;;;;;;;5303443;26;19931;-69
2024/04/22 09:12:51;;;;;;;;;;;;;;;;;;5311613;26;19930;-69
2024/04/22 09:15:17;;;;;;;;;;;;;;;;;;5314451;26;19938;-69
2024/04/22 09:17:46;;;;;;;;;;;;;;;;;;5304194;27;19985;-69
2024/04/22 09:20:12;;;;;;;;;;;;;;;;;;5300935;27;19946;-69
2024/04/22 09:22:40;;;;;;;;;;;;;;;;;;5298423;26;19995;-69
2024/04/22 09:25:06;;;;;;;;;;;;;;;;;;5301501;27;19937;-69
2024/04/22 09:27:35;;;;;;;;;;;;;;;;;;5300519;26;19931;-69
2024/04/22 09:30:01;;;;;;;;;;;;;;;;;;5304937;26;19931;-69
2024/04/22 09:32:30;;;;;;;;;;;;;;;;;;5306740;26;19966;-69
2024/04/22 09:34:56;;;;;;;;;;;;;;;;;;5308097;26;19930;-70
2024/04/22 09:37:25;;;;;;;;;;;;;;;;;;5306515;26;19930;-70
2024/04/22 09:39:51;;;;;;;;;;;;;;;;;;5306225;26;19999;-70
2024/04/22 09:42:20;;;;;;;;;;;;;;;;;;5310383;26;19930;-69
2024/04/22 09:44:46;;;;;;;;;;;;;;;;;;5304896;26;19931;-69
2024/04/22 09:47:15;;;;;;;;;;;;;;;;;;5301641;27;20064;-69
2024/04/22 09:49:41;;;;;;;;;;;;;;;;;;5307908;26;19930;-70
2024/04/22 09:52:09;;;;;;;;;;;;;;;;;;5307124;26;19939;-70
2024/04/22 09:54:35;;;;;;;;;;;;;;;;;;5304146;26;19938;-69
2024/04/22 09:57:04;;;;;;;;;;;;;;;;;;5302372;26;19981;-70
2024/04/22 09:59:30;;;;;;;;;;;;;;;;;;5302339;26;19938;-69
2024/04/22 10:01:59;;;;;;;;;;;;;;;;;;5318855;26;19959;-70
2024/04/22 10:04:25;;;;;;;;;;;;;;;;;;5288394;26;19934;-69
2024/04/22 10:06:54;;;;;;;;;;;;;;;;;;5309114;26;19931;-70
2024/04/22 10:09:20;;;;;;;;;;;;;;;;;;5301843;27;19938;-71
2024/04/22 10:11:48;;;;;;;;;;;;;;;;;;5303165;27;19931;-69
2024/04/22 10:14:16;;;;;;;;;;;;;;;;;;5307197;26;19930;-69
2024/04/22 10:16:44;;;;;;;;;;;;;;;;;;5303891;26;20338;-69
2024/04/22 10:19:10;;;;;;;;;;;;;;;;;;5301856;26;19934;-69
2024/04/22 10:21:39;;;;;;;;;;;;;;;;;;5302498;26;19935;-70
2024/04/22 10:24:05;;;;;;;;;;;;;;;;;;5301853;26;20014;-70
2024/04/22 10:26:34;;;;;;;;;;;;;;;;;;5303281;27;20052;-69
2024/04/22 10:29:00;;;;;;;;;;;;;;;;;;5309404;26;19938;-69
2024/04/22 10:31:28;;;;;;;;;;;;;;;;;;5302185;26;19941;-70
2024/04/22 10:33:55;;;;;;;;;;;;;;;;;;5317460;26;19930;-70
2024/04/22 10:36:25;;;;;;;;;;;;;;;;;;5306840;26;20455;-70
2024/04/22 10:38:51;;;;;;;;;;;;;;;;;;5309617;26;20441;-69
2024/04/22 10:41:20;;;;;;;;;;;;;;;;;;5307653;26;19930;-70
2024/04/22 10:43:46;;;;;;;;;;;;;;;;;;5314361;26;19950;-68
2024/04/22 10:46:15;;;;;;;;;;;;;;;;;;5306244;26;19945;-69
2024/04/22 10:48:41;;;;;;;;;;;;;;;;;;5305356;27;19931;-69
2024/04/22 10:51:10;;;;;;;;;;;;;;;;;;5311099;26;19962;-69
2024/04/22 10:53:36;;;;;;;;;;;;;;;;;;5306059;26;19931;-69
2024/04/22 10:56:04;;;;;;;;;;;;;;;;;;5325766;26;20130;-69
2024/04/22 10:58:31;;;;;;;;;;;;;;;;;;5303126;26;19937;-69
2024/04/22 11:00:59;;;;;;;;;;;;;;;;;;5313355;26;19945;-70
2024/04/22 11:03:25;;;;;;;;;;;;;;;;;;5330489;26;19941;-69
2024/04/22 11:05:54;;;;;;;;;;;;;;;;;;5309239;26;20012;-69
2024/04/22 11:08:20;;;;;;;;;;;;;;;;;;5316165;26;20258;-70
2024/04/22 11:10:49;;;;;;;;;;;;;;;;;;5314924;26;19946;-70
2024/04/22 11:13:15;;;;;;;;;;;;;;;;;;5305694;27;19930;-69
2024/04/22 11:15:43;;;;;;;;;;;;;;;;;;5307971;26;19938;-70
2024/04/22 11:18:10;;;;;;;;;;;;;;;;;;5310398;26;20354;-69
2024/04/22 11:20:39;;;;;;;;;;;;;;;;;;5304293;26;19953;-69
2024/04/22 11:23:05;;;;;;;;;;;;;;;;;;5297068;27;19941;-70
2024/04/22 11:25:34;;;;;;;;;;;;;;;;;;5305461;27;19945;-66
2024/04/22 11:28:00;;;;;;;;;;;;;;;;;;5297871;27;19930;-68
2024/04/22 11:30:29;;;;;;;;;;;;;;;;;;5285940;26;19971;-69
2024/04/22 11:32:55;;;;;;;;;;;;;;;;;;5302429;27;20246;-70
2024/04/22 11:35:24;;;;;;;;;;;;;;;;;;5303526;26;19931;-70
2024/04/22 11:37:50;;;;;;;;;;;;;;;;;;5301324;27;19966;-69
2024/04/22 11:40:19;;;;;;;;;;;;;;;;;;5305097;27;19938;-69
2024/04/22 11:42:45;;;;;;;;;;;;;;;;;;5303582;26;19931;-69
2024/04/22 11:45:13;;;;;;;;;;;;;;;;;;5305712;27;19938;-69
2024/04/22 11:47:39;;;;;;;;;;;;;;;;;;5304369;27;19935;-70
2024/04/22 11:50:08;;;;;;;;;;;;;;;;;;5304842;27;19942;-70
2024/04/22 11:52:34;;;;;;;;;;;;;;;;;;5304121;27;20392;-69
2024/04/22 11:55:03;;;;;;;;;;;;;;;;;;5304923;27;20032;-70
2024/04/22 11:57:29;;;;;;;;;;;;;;;;;;5304010;26;20656;-70
2024/04/22 11:59:57;;;;;;;;;;;;;;;;;;5303979;27;19930;-70
2024/04/22 12:02:24;;;;;;;;;;;;;;;;;;5304601;27;20067;-69
2024/04/22 12:04:54;;;;;;;;;;;;;;;;;;5301470;27;19937;-69
2024/04/22 12:07:20;;;;;;;;;;;;;;;;;;5303778;26;19939;-70
2024/04/22 12:09:49;;;;;;;;;;;;;;;;;;5296867;26;19945;-68
2024/04/22 12:12:15;;;;;;;;;;;;;;;;;;5301834;26;19931;-72
2024/04/22 12:14:43;;;;;;;;;;;;;;;;;;5304247;27;19935;-69
2024/04/22 12:17:11;;;;;;;;;;;;;;;;;;5303584;27;19930;-70
2024/04/22 12:19:40;;;;;;;;;;;;;;;;;;5304380;26;19930;-72
2024/04/22 12:22:06;;;;;;;;;;;;;;;;;;5304452;27;19942;-70
2024/04/22 12:24:34;;;;;;;;;;;;;;;;;;5304809;27;19938;-70
2024/04/22 12:27:00;;;;;;;;;;;;;;;;;;5306365;27;20408;-70
2024/04/22 12:29:29;;;;;;;;;;;;;;;;;;5301873;27;19949;-70
2024/04/22 12:31:55;;;;;;;;;;;;;;;;;;5307250;27;19938;-70
2024/04/22 12:34:24;;;;;;;;;;;;;;;;;;5305341;26;20331;-70
2024/04/22 12:36:50;;;;;;;;;;;;;;;;;;5306545;27;20030;-70
2024/04/22 12:39:19;;;;;;;;;;;;;;;;;;5307315;27;20361;-70
2024/04/22 12:41:45;;;;;;;;;;;;;;;;;;5305047;26;19930;-69
2024/04/22 12:44:13;;;;;;;;;;;;;;;;;;5306030;27;20454;-69
2024/04/22 12:50:42;;;;;;;;;;;;;;;;;;5306164;27;20273;-69
2024/04/22 12:52:15;;;;;;;;;;;;;;;;;;5307776;27;19934;-70
2024/04/22 12:54:44;;;;;;;;;;;;;;;;;;5304540;27;20277;-66
2024/04/22 12:57:13;;;;;;;;;;;;;;;;;;5303073;27;19945;-67
2024/04/22 12:59:42;;;;;;;;;;;;;;;;;;5303806;26;19931;-67
2024/04/22 13:02:10;;;;;;;;;;;;;;;;;;5303300;27;20381;-65
2024/04/22 13:04:39;;;;;;;;;;;;;;;;;;5298011;27;20395;-66
2024/04/22 13:07:08;;;;;;;;;;;;;;;;;;5303146;26;19931;-67
2024/04/22 13:09:37;;;;;;;;;;;;;;;;;;5303956;26;19938;-67
2024/04/22 13:12:05;;;;;;;;;;;;;;;;;;5293120;27;19935;-68
2024/04/22 13:14:32;;;;;;;;;;;;;;;;;;5271239;27;19931;-66
2024/04/22 13:17:00;;;;;;;;;;;;;;;;;;5302949;27;20302;-67
2024/04/22 13:19:26;;;;;;;;;;;;;;;;;;5302983;27;20584;-67
2024/04/22 13:21:55;;;;;;;;;;;;;;;;;;5296361;26;19947;-66
2024/04/22 13:24:21;;;;;;;;;;;;;;;;;;5297038;27;19962;-67
2024/04/22 13:26:50;;;;;;;;;;;;;;;;;;5302217;26;19930;-66
2024/04/22 13:29:16;;;;;;;;;;;;;;;;;;5305529;26;20371;-66
2024/04/22 13:31:45;;;;;;;;;;;;;;;;;;5321515;26;19931;-66
2024/04/22 13:34:11;;;;;;;;;;;;;;;;;;5306558;26;19943;-67
2024/04/22 13:36:40;;;;;;;;;;;;;;;;;;5302757;26;19941;-65
2024/04/22 13:39:06;;;;;;;;;;;;;;;;;;5302193;26;20207;-66
2024/04/22 13:41:34;;;;;;;;;;;;;;;;;;5302690;26;20012;-70
2024/04/22 13:44:00;;;;;;;;;;;;;;;;;;5331624;26;19930;-70
2024/04/22 13:46:29;;;;;;;;;;;;;;;;;;5309216;26;19969;-70
2024/04/22 13:48:55;;;;;;;;;;;;;;;;;;5306183;26;20522;-70
2024/04/22 13:51:24;;;;;;;;;;;;;;;;;;5312080;26;19987;-71
2024/04/22 13:53:51;;;;;;;;;;;;;;;;;;5300627;27;20369;-69
2024/04/22 13:56:20;;;;;;;;;;;;;;;;;;5307032;26;20049;-69
2024/04/22 13:58:46;;;;;;;;;;;;;;;;;;5306094;26;19930;-69
2024/04/22 14:01:15;;;;;;;;;;;;;;;;;;5307805;26;19942;-69
2024/04/22 14:03:41;;;;;;;;;;;;;;;;;;5305054;26;19931;-69
2024/04/22 14:06:10;;;;;;;;;;;;;;;;;;5306013;26;19931;-69
2024/04/22 14:08:36;;;;;;;;;;;;;;;;;;5317343;26;20014;-69
2024/04/22 14:11:05;;;;;;;;;;;;;;;;;;5303025;27;20408;-69
2024/04/22 14:13:31;;;;;;;;;;;;;;;;;;5306081;26;19938;-69
2024/04/22 14:16:00;;;;;;;;;;;;;;;;;;5303536;26;19939;-69
2024/04/22 14:18:26;;;;;;;;;;;;;;;;;;5301868;27;20265;-68
2024/04/22 14:20:55;;;;;;;;;;;;;;;;;;5303570;27;19939;-69
2024/04/22 14:23:21;;;;;;;;;;;;;;;;;;5304424;26;19935;-69
2024/04/22 14:25:51;;;;;;;;;;;;;;;;;;5302407;26;20291;-68
2024/04/22 14:28:21;;;;;;;;;;;;;;;;;;5300933;26;19943;-69
2024/04/22 14:30:47;;;;;;;;;;;;;;;;;;5302682;26;19938;-67
2024/04/22 14:33:16;;;;;;;;;;;;;;;;;;5302017;26;20098;-67
2024/04/22 14:35:42;;;;;;;;;;;;;;;;;;5307903;26;19931;-69
2024/04/22 14:38:11;;;;;;;;;;;;;;;;;;5308238;26;19949;-69
2024/04/22 14:40:37;;;;;;;;;;;;;;;;;;5307970;26;19931;-69
2024/04/22 14:43:06;;;;;;;;;;;;;;;;;;5307630;27;19971;-69
2024/04/22 14:45:32;;;;;;;;;;;;;;;;;;5309127;26;19938;-69
2024/04/22 14:48:00;;;;;;;;;;;;;;;;;;5308815;26;19973;-69
2024/04/22 14:50:26;;;;;;;;;;;;;;;;;;5305815;26;19938;-69
2024/04/22 14:52:55;;;;;;;;;;;;;;;;;;5308704;26;20022;-69
2024/04/22 14:55:21;;;;;;;;;;;;;;;;;;5309175;27;19938;-69
2024/04/22 14:57:50;;;;;;;;;;;;;;;;;;5315086;26;19931;-69
2024/04/22 15:00:16;;;;;;;;;;;;;;;;;;5309164;26;19938;-69
2024/04/22 15:02:45;;;;;;;;;;;;;;;;;;5310569;26;20005;-69
2024/04/22 15:05:11;;;;;;;;;;;;;;;;;;5301492;27;20368;-69
2024/04/22 15:07:39;;;;;;;;;;;;;;;;;;5311410;27;20370;-69
2024/04/22 15:10:05;;;;;;;;;;;;;;;;;;5309486;27;19934;-69
2024/04/22 15:12:34;;;;;;;;;;;;;;;;;;5310514;26;19930;-70
2024/04/22 15:15:00;;;;;;;;;;;;;;;;;;5308673;26;19930;-69
2024/04/22 15:17:29;;;;;;;;;;;;;;;;;;5276910;27;19943;-69
2024/04/22 15:19:55;;;;;;;;;;;;;;;;;;5302372;27;19962;-69
2024/04/22 15:22:24;;;;;;;;;;;;;;;;;;5327533;26;19937;-69
2024/04/22 15:24:50;;;;;;;;;;;;;;;;;;5296640;26;19931;-69
2024/04/22 15:27:19;;;;;;;;;;;;;;;;;;5306074;26;19930;-69
2024/04/22 15:29:45;;;;;;;;;;;;;;;;;;5306735;26;20012;-69
2024/04/22 15:32:14;;;;;;;;;;;;;;;;;;5304403;26;19938;-67
2024/04/22 15:34:42;;;;;;;;;;;;;;;;;;5309069;27;19930;-68
2024/04/22 15:37:11;;;;;;;;;;;;;;;;;;5310050;26;19931;-67
2024/04/22 15:39:37;;;;;;;;;;;;;;;;;;5307763;27;19930;-67
2024/04/22 15:42:05;;;;;;;;;;;;;;;;;;5305939;26;19931;-67
2024/04/22 15:44:31;;;;;;;;;;;;;;;;;;5303719;27;19938;-67
2024/04/22 15:47:00;;;;;;;;;;;;;;;;;;5305543;26;20410;-66
2024/04/22 15:49:26;;;;;;;;;;;;;;;;;;5305898;26;20400;-67
2024/04/22 15:51:55;;;;;;;;;;;;;;;;;;5298516;26;20261;-68
2024/04/22 15:54:21;;;;;;;;;;;;;;;;;;5301356;26;20369;-67
2024/04/22 15:56:49;;;;;;;;;;;;;;;;;;5305223;26;19937;-67
2024/04/22 15:59:16;;;;;;;;;;;;;;;;;;5304976;26;19930;-67
2024/04/22 16:01:44;;;;;;;;;;;;;;;;;;5305340;27;19930;-69
2024/04/22 16:04:10;;;;;;;;;;;;;;;;;;5304745;27;19962;-67
2024/04/22 16:06:39;;;;;;;;;;;;;;;;;;5305032;26;19937;-67
2024/04/22 16:09:05;;;;;;;;;;;;;;;;;;5305036;26;19934;-68
2024/04/22 16:11:34;;;;;;;;;;;;;;;;;;5303952;27;19946;-68
2024/04/22 16:14:00;;;;;;;;;;;;;;;;;;5305371;27;19942;-68
2024/04/22 16:16:28;;;;;;;;;;;;;;;;;;5307223;27;20554;-68
2024/04/22 16:18:55;;;;;;;;;;;;;;;;;;5302107;26;19938;-68
2024/04/22 16:21:23;;;;;;;;;;;;;;;;;;5306224;26;20469;-68
2024/04/22 16:23:49;;;;;;;;;;;;;;;;;;5298289;26;19938;-68
2024/04/22 16:26:18;;;;;;;;;;;;;;;;;;5305458;26;19934;-69
2024/04/22 16:28:45;;;;;;;;;;;;;;;;;;5302806;27;20443;-69
2024/04/22 16:31:14;;;;;;;;;;;;;;;;;;5303686;26;19959;-68
2024/04/22 16:33:40;;;;;;;;;;;;;;;;;;5300814;27;20300;-68
2024/04/22 16:36:09;;;;;;;;;;;;;;;;;;5299687;26;19938;-68
2024/04/22 16:38:35;;;;;;;;;;;;;;;;;;5301701;27;19931;-69
2024/04/22 16:41:03;;;;;;;;;;;;;;;;;;5303608;27;19930;-69
2024/04/22 16:43:32;;;;;;;;;;;;;;;;;;5302641;26;19938;-68
2024/04/22 16:45:58;;;;;;;;;;;;;;;;;;5302053;27;20273;-68
2024/04/22 16:48:27;;;;;;;;;;;;;;;;;;5303719;27;19937;-69
2024/04/22 16:50:53;;;;;;;;;;;;;;;;;;5304067;26;19935;-69
2024/04/22 16:53:22;;;;;;;;;;;;;;;;;;5304045;27;19964;-68
2024/04/22 16:55:48;;;;;;;;;;;;;;;;;;5304786;26;20350;-68
2024/04/22 16:58:17;;;;;;;;;;;;;;;;;;5293583;27;19938;-68